Time;durP1;ratioP1;P1;durP2;ratioP2;P2;SDS_P1;SDS_P2;PMS_P1;PMS_P2;Temp;Humidity;BMP_temperature;BMP_pressure;BME280_temperature;BME280_humidity;BME280_pressure;Samples;Min_cycle;Max_cycle;Signal;HPM_P1;HPM_P2
2021/10/14 00:01:14;;;;;;;11.30;5.57;;;;;;;10.75;97.75;102034.38;5068806;28;20119;-85
2021/10/14 00:03:42;;;;;;;11.18;5.53;;;;;;;10.74;98.01;102038.91;5068152;28;20557;-87
2021/10/14 00:06:09;;;;;;;13.13;5.63;;;;;;;10.76;97.64;102030.69;5043076;28;20096;-83
2021/10/14 00:08:35;;;;;;;10.02;5.93;;;;;;;10.75;97.82;102029.00;5039352;28;20041;-81
2021/10/14 00:11:01;;;;;;;14.70;5.10;;;;;;;10.73;97.61;102029.16;5045019;28;20081;-87
2021/10/14 00:13:26;;;;;;;11.20;5.65;;;;;;;10.73;97.43;102028.28;5047025;28;20045;-81
2021/10/14 00:15:52;;;;;;;9.82;5.32;;;;;;;10.73;97.88;102030.97;5049097;28;20048;-87
2021/10/14 00:18:18;;;;;;;10.63;5.22;;;;;;;10.74;97.82;102036.22;5044578;28;20033;-82
2021/10/14 00:20:44;;;;;;;9.13;6.18;;;;;;;10.73;98.07;102028.28;5044989;28;20481;-87
2021/10/14 00:23:09;;;;;;;11.57;4.60;;;;;;;10.73;97.97;102033.66;5077920;28;20037;-86
2021/10/14 00:25:36;;;;;;;10.30;5.63;;;;;;;10.73;97.94;102033.66;5065233;28;20039;-85
2021/10/14 00:28:02;;;;;;;11.73;5.93;;;;;;;10.71;98.58;102032.94;5055669;28;20919;-84
2021/10/14 00:30:31;;;;;;;12.57;6.22;;;;;;;10.70;98.79;102031.22;5066663;28;20040;-87
2021/10/14 00:32:56;;;;;;;13.38;7.07;;;;;;;10.65;99.27;102028.97;5065790;28;20048;-87
2021/10/14 00:35:23;;;;;;;13.15;6.70;;;;;;;10.63;99.94;102027.41;5065405;28;20405;-85
2021/10/14 00:37:50;;;;;;;15.85;7.25;;;;;;;10.60;100.00;102032.03;5065020;28;20043;-84
2021/10/14 00:40:17;;;;;;;13.48;6.90;;;;;;;10.60;100.00;102025.84;5065799;28;20107;-84
2021/10/14 00:42:44;;;;;;;11.82;6.57;;;;;;;10.58;100.00;102033.16;5065530;28;20120;-84
2021/10/14 00:45:10;;;;;;;12.85;6.80;;;;;;;10.58;100.00;102033.16;5085756;28;20044;-87
2021/10/14 00:47:38;;;;;;;11.55;7.38;;;;;;;10.57;100.00;102035.00;5052049;28;20389;-85
2021/10/14 00:50:08;;;;;;;14.43;7.95;;;;;;;10.56;100.00;102027.94;5051379;28;20041;-90
2021/10/14 00:52:36;;;;;;;16.20;7.85;;;;;;;10.56;100.00;102019.88;5067385;28;20044;-84
2021/10/14 00:55:04;;;;;;;15.30;8.00;;;;;;;10.56;100.00;102019.88;5070283;28;20512;-87
2021/10/14 00:57:35;;;;;;;15.80;7.97;;;;;;;10.55;100.00;102012.81;5066329;28;20183;-82
2021/10/14 01:00:04;;;;;;;13.30;8.40;;;;;;;10.55;100.00;102020.84;5082510;28;20056;-81
2021/10/14 01:02:30;;;;;;;14.88;8.80;;;;;;;10.55;100.00;102011.97;5061235;28;20048;-81
2021/10/14 01:04:55;;;;;;;15.55;9.45;;;;;;;10.55;100.00;102014.66;5072650;28;20040;-86
2021/10/14 01:07:22;;;;;;;17.60;8.70;;;;;;;10.55;100.00;102010.13;5065917;28;20067;-86
2021/10/14 01:09:47;;;;;;;18.60;9.75;;;;;;;10.55;100.00;102007.44;5077173;28;20378;-85
2021/10/14 01:12:14;;;;;;;14.75;10.20;;;;;;;10.53;100.00;102008.56;5063868;28;20101;-83
2021/10/14 01:14:39;;;;;;;21.38;11.23;;;;;;;10.53;100.00;102009.44;5063259;28;20474;-82
2021/10/14 01:17:08;;;;;;;17.33;11.90;;;;;;;10.52;100.00;102002.34;5068064;28;20163;-86
2021/10/14 01:19:36;;;;;;;22.57;12.17;;;;;;;10.50;100.00;101993.59;5066127;28;20097;-84
2021/10/14 01:22:02;;;;;;;20.75;12.30;;;;;;;10.49;100.00;102007.13;5062361;28;20068;-88
2021/10/14 01:24:28;;;;;;;21.55;12.70;;;;;;;10.46;100.00;102002.88;5077430;28;20442;-84
2021/10/14 01:26:54;;;;;;;18.58;11.98;;;;;;;10.45;100.00;102001.19;5048926;28;20039;-84
2021/10/14 01:29:19;;;;;;;21.98;14.13;;;;;;;10.46;100.00;102002.88;5046663;28;20068;-84
2021/10/14 01:31:44;;;;;;;25.63;14.77;;;;;;;10.45;100.00;102003.88;5065307;28;20044;-84
2021/10/14 01:34:15;;;;;;;24.88;15.45;;;;;;;10.42;100.00;101996.09;5060034;28;20722;-86
2021/10/14 01:36:42;;;;;;;26.40;15.07;;;;;;;10.44;100.00;101988.75;5064969;28;20037;-86
2021/10/14 01:39:07;;;;;;;25.40;14.93;;;;;;;10.42;100.00;101985.38;5063184;28;20393;-85
2021/10/14 01:41:34;;;;;;;27.52;17.00;;;;;;;10.42;100.00;101982.69;5061504;28;20037;-82
2021/10/14 01:44:01;;;;;;;25.70;15.90;;;;;;;10.42;100.00;101985.38;5066092;28;20047;-82
2021/10/14 01:46:27;;;;;;;21.02;15.35;;;;;;;10.40;100.00;101979.28;5076500;28;20037;-82
2021/10/14 01:48:52;;;;;;;26.80;16.67;;;;;;;10.41;100.00;101982.78;5060521;28;20055;-86
2021/10/14 01:51:23;;;;;;;26.88;17.83;;;;;;;10.42;100.00;101977.31;5063472;28;20484;-85
2021/10/14 01:53:51;;;;;;;32.00;17.98;;;;;;;10.41;100.00;101978.28;5059145;28;20033;-87
2021/10/14 01:56:16;;;;;;;30.60;16.70;;;;;;;10.43;100.00;101980.84;5062228;28;20047;-83
2021/10/14 01:58:41;;;;;;;29.15;17.20;;;;;;;10.42;100.00;101971.09;5066030;28;20037;-87
2021/10/14 02:01:07;;;;;;;22.15;15.80;;;;;;;10.42;100.00;101979.16;5060723;28;20051;-81
2021/10/14 02:03:32;;;;;;;27.30;18.00;;;;;;;10.42;100.00;101980.00;5061627;28;20056;-84
2021/10/14 02:05:58;;;;;;;28.42;18.38;;;;;;;10.42;100.00;101973.78;5063170;28;20044;-83
2021/10/14 02:08:28;;;;;;;31.35;18.63;;;;;;;10.43;100.00;101968.25;5067675;28;20128;-83
2021/10/14 02:10:53;;;;;;;26.15;18.48;;;;;;;10.42;100.00;101958.53;5069252;28;20360;-84
2021/10/14 02:13:19;;;;;;;30.45;20.13;;;;;;;10.44;100.00;101972.63;5061277;28;20033;-87
2021/10/14 02:15:45;;;;;;;32.20;19.23;;;;;;;10.43;100.00;101957.53;5054626;28;20041;-86
2021/10/14 02:18:11;;;;;;;29.20;20.08;;;;;;;10.45;100.00;101946.69;5061045;28;20432;-83
2021/10/14 02:20:37;;;;;;;31.60;19.45;;;;;;;10.47;100.00;101950.06;5064764;28;20086;-83
2021/10/14 02:23:05;;;;;;;32.10;20.58;;;;;;;10.47;100.00;101958.97;5065339;28;20600;-88
2021/10/14 02:25:31;;;;;;;31.10;19.80;;;;;;;10.49;100.00;101956.13;5067129;28;20477;-85
2021/10/14 02:27:56;;;;;;;30.35;19.90;;;;;;;10.48;100.00;101971.41;5063899;28;20290;-87
2021/10/14 02:30:24;;;;;;;31.85;20.15;;;;;;;10.49;100.00;101972.25;5065782;28;20036;-84
2021/10/14 02:32:50;;;;;;;32.43;19.67;;;;;;;10.47;100.00;101977.75;5071577;28;20405;-82
2021/10/14 02:35:15;;;;;;;34.42;20.27;;;;;;;10.48;100.00;101984.81;5047472;28;20119;-85
2021/10/14 02:37:42;;;;;;;34.42;21.52;;;;;;;10.49;100.00;101983.81;5080622;28;20037;-85
2021/10/14 02:40:08;;;;;;;34.85;22.48;;;;;;;10.49;100.00;101985.66;5077996;28;20442;-85
2021/10/14 02:42:34;;;;;;;38.28;23.02;;;;;;;10.48;100.00;101983.97;5048665;28;20067;-85
2021/10/14 02:45:00;;;;;;;35.78;22.08;;;;;;;10.49;100.00;101977.63;5046186;28;20205;-87
2021/10/14 02:47:26;;;;;;;36.92;21.90;;;;;;;10.49;100.00;101977.63;5081876;28;20124;-89
2021/10/14 02:49:51;;;;;;;38.65;22.40;;;;;;;10.49;100.00;101975.78;5064842;28;20036;-85
2021/10/14 02:52:19;;;;;;;36.63;22.33;;;;;;;10.49;100.00;101970.41;5067755;28;20446;-85
2021/10/14 02:54:44;;;;;;;36.38;23.05;;;;;;;10.49;100.00;101978.47;5058515;28;20037;-82
2021/10/14 02:57:10;;;;;;;41.33;23.98;;;;;;;10.50;100.00;101969.44;5059763;28;20441;-81
2021/10/14 02:59:35;;;;;;;41.38;24.77;;;;;;;10.50;100.00;101966.75;5060308;28;20087;-84
2021/10/14 03:02:00;;;;;;;42.13;26.48;;;;;;;10.51;100.00;101968.44;5057873;28;20223;-90
2021/10/14 03:04:27;;;;;;;42.80;25.15;;;;;;;10.52;100.00;101961.25;5043445;28;20040;-88
2021/10/14 03:06:52;;;;;;;41.85;24.50;;;;;;;10.52;100.00;101963.91;5060990;28;20512;-86
2021/10/14 03:09:17;;;;;;;44.17;26.50;;;;;;;10.54;100.00;101967.31;5063345;28;20074;-85
2021/10/14 03:11:43;;;;;;;43.05;25.05;;;;;;;10.54;100.00;101968.16;5012119;28;20095;-88
2021/10/14 03:14:08;;;;;;;41.45;23.95;;;;;;;10.55;100.00;101961.81;5044468;28;20045;-87
2021/10/14 03:16:35;;;;;;;50.95;26.33;;;;;;;10.55;100.00;101959.13;5050456;28;20493;-89
2021/10/14 03:19:00;;;;;;;46.67;26.92;;;;;;;10.57;100.00;101959.84;5065594;28;20507;-84
2021/10/14 03:21:25;;;;;;;49.00;27.50;;;;;;;10.56;100.00;101963.53;5058477;28;20063;-84
2021/10/14 03:23:51;;;;;;;47.95;28.00;;;;;;;10.59;100.00;101959.72;5046759;28;20040;-84
2021/10/14 03:26:17;;;;;;;53.22;28.17;;;;;;;10.60;100.00;101951.53;5044405;28;20127;-87
2021/10/14 03:28:43;;;;;;;50.22;28.98;;;;;;;10.61;100.00;101955.06;5076724;28;20075;-85
2021/10/14 03:31:09;;;;;;;50.20;28.98;;;;;;;10.62;100.00;101956.75;5063683;28;20067;-90
2021/10/14 03:33:35;;;;;;;53.65;28.52;;;;;;;10.61;100.00;101955.06;5060775;28;20036;-82
2021/10/14 03:36:00;;;;;;;50.72;28.67;;;;;;;10.62;100.00;101954.09;5067064;28;20521;-86
2021/10/14 03:38:26;;;;;;;46.75;27.10;;;;;;;10.64;100.00;101952.09;5066012;28;20036;-84
2021/10/14 03:40:52;;;;;;;51.20;30.13;;;;;;;10.65;100.00;101952.97;5060115;28;20059;-83
2021/10/14 03:43:20;;;;;;;52.33;29.67;;;;;;;10.67;100.00;101946.44;5073290;28;20033;-82
2021/10/14 03:45:45;;;;;;;52.63;30.05;;;;;;;10.67;100.00;101941.06;5078477;28;20048;-88
2021/10/14 03:48:10;;;;;;;53.80;29.23;;;;;;;10.69;100.00;101940.97;5059809;28;20044;-85
2021/10/14 03:50:36;;;;;;;56.28;30.92;;;;;;;10.68;100.00;101941.94;5059063;28;20049;-88
2021/10/14 03:53:03;;;;;;;49.92;29.38;;;;;;;10.69;100.00;101944.47;5045495;28;20040;-88
2021/10/14 03:55:29;;;;;;;59.85;30.55;;;;;;;10.68;100.00;101948.16;5081692;28;20041;-86
2021/10/14 03:57:55;;;;;;;56.88;29.75;;;;;;;10.71;100.00;101947.03;5063873;28;20519;-82
2021/10/14 04:00:23;;;;;;;58.70;30.73;;;;;;;10.72;100.00;101954.09;5039275;28;20045;-86
2021/10/14 04:02:49;;;;;;;57.35;30.50;;;;;;;10.71;100.00;101953.25;5053828;28;20068;-83
2021/10/14 04:05:17;;;;;;;62.40;33.83;;;;;;;10.73;100.00;101945.06;5051640;28;20033;-85
2021/10/14 04:07:53;;;;;;;65.55;31.70;;;;;;;10.74;100.00;101938.72;5047346;28;20040;-87
2021/10/14 04:10:19;;;;;;;68.00;31.38;;;;;;;10.74;100.00;101947.63;5028192;28;20813;-88
2021/10/14 04:12:45;;;;;;;69.05;32.13;;;;;;;10.74;100.00;101936.03;5044387;28;20044;-85
2021/10/14 04:15:10;;;;;;;65.63;34.40;;;;;;;10.74;100.00;101941.41;5064439;28;20130;-86
2021/10/14 04:17:35;;;;;;;69.85;34.03;;;;;;;10.76;100.00;101944.78;5064135;28;20481;-83
2021/10/14 04:20:04;;;;;;;66.95;33.67;;;;;;;10.77;100.00;101941.13;5074295;28;20094;-88
2021/10/14 04:22:29;;;;;;;75.30;35.05;;;;;;;10.76;100.00;101937.59;5066238;28;20120;-85
2021/10/14 04:24:54;;;;;;;72.03;36.67;;;;;;;10.78;100.00;101938.28;5047105;28;20159;-85
2021/10/14 04:27:20;;;;;;;84.65;38.13;;;;;;;10.79;100.00;101934.63;5041839;28;20041;-85
2021/10/14 04:29:46;;;;;;;82.90;38.70;;;;;;;10.79;100.00;101942.69;5060845;28;20038;-87
2021/10/14 04:32:16;;;;;;;74.63;37.97;;;;;;;10.79;100.00;101936.47;5072478;28;20075;-81
2021/10/14 04:34:42;;;;;;;79.78;38.15;;;;;;;10.78;100.00;101926.69;5080197;28;20033;-82
2021/10/14 04:37:08;;;;;;;80.70;39.55;;;;;;;10.78;100.00;101932.91;5065338;28;20045;-83
2021/10/14 04:39:37;;;;;;;77.55;38.25;;;;;;;10.80;100.00;101924.72;5064903;28;20172;-88
2021/10/14 04:42:04;;;;;;;84.20;41.28;;;;;;;10.78;100.00;101927.53;5064630;28;20434;-86
2021/10/14 04:44:35;;;;;;;84.03;40.45;;;;;;;10.78;100.00;101918.66;5066970;28;20033;-86
2021/10/14 04:47:03;;;;;;;88.35;42.65;;;;;;;10.77;100.00;101922.31;5076000;28;20084;-86
2021/10/14 04:49:28;;;;;;;87.82;41.33;;;;;;;10.77;100.00;101911.59;5067311;28;20036;-84
2021/10/14 04:51:56;;;;;;;97.25;45.10;;;;;;;10.76;100.00;101913.44;5060248;28;20385;-88
2021/10/14 04:54:23;;;;;;;95.75;43.92;;;;;;;10.79;100.00;101917.69;5063893;28;20041;-89
2021/10/14 04:56:49;;;;;;;98.55;44.55;;;;;;;10.78;100.00;101916.81;5068441;28;20044;-86
2021/10/14 04:59:14;;;;;;;95.25;43.67;;;;;;;10.80;100.00;101911.31;5067115;28;20040;-88
2021/10/14 05:01:40;;;;;;;89.68;43.58;;;;;;;10.81;100.00;101923.75;5053125;28;20036;-82
2021/10/14 05:04:06;;;;;;;97.00;45.45;;;;;;;10.81;100.00;101921.06;5049373;28;20128;-89
2021/10/14 05:06:39;;;;;;;101.35;45.75;;;;;;;10.82;100.00;101912.03;5065957;28;20124;-83
2021/10/14 05:09:05;;;;;;;101.15;45.30;;;;;;;10.82;100.00;101917.41;5078235;28;20033;-86
2021/10/14 05:11:32;;;;;;;103.25;46.85;;;;;;;10.83;100.00;101917.25;5054229;28;20397;-87
2021/10/14 05:13:58;;;;;;;100.78;46.72;;;;;;;10.82;100.00;101920.09;5063993;28;20048;-88
2021/10/14 05:16:23;;;;;;;97.47;45.42;;;;;;;10.83;100.00;101913.72;5065872;28;20045;-85
2021/10/14 05:18:48;;;;;;;96.68;45.97;;;;;;;10.83;100.00;101924.47;5047344;28;20049;-84
2021/10/14 05:21:14;;;;;;;91.63;45.28;;;;;;;10.84;100.00;101927.00;5050507;28;20389;-85
2021/10/14 05:23:39;;;;;;;108.00;50.55;;;;;;;10.85;100.00;101919.81;5062761;28;20119;-82
2021/10/14 05:26:11;;;;;;;102.45;48.17;;;;;;;10.86;100.00;101920.66;5066657;28;20053;-83
2021/10/14 05:28:38;;;;;;;99.38;46.17;;;;;;;10.85;100.00;101927.88;5032807;28;20435;-84
2021/10/14 05:31:03;;;;;;;107.03;48.70;;;;;;;10.87;100.00;101914.28;5064026;28;20037;-87
2021/10/14 05:33:30;;;;;;;109.75;49.50;;;;;;;10.87;100.00;101916.97;5065021;28;20043;-84
2021/10/14 05:35:56;;;;;;;101.93;48.53;;;;;;;10.88;100.00;101919.53;5064513;28;20045;-87
2021/10/14 05:38:21;;;;;;;112.47;52.17;;;;;;;10.89;100.00;101923.91;5051336;28;20044;-85
2021/10/14 05:40:53;;;;;;;103.07;50.53;;;;;;;10.89;100.00;101923.91;5066309;28;20119;-85
2021/10/14 05:43:18;;;;;;;107.57;50.08;;;;;;;10.89;100.00;101921.22;5063117;28;20147;-87
2021/10/14 05:45:43;;;;;;;111.72;50.50;;;;;;;10.91;100.00;101921.09;5049812;28;20476;-83
2021/10/14 05:48:10;;;;;;;116.72;52.28;;;;;;;10.93;100.00;101924.47;5066102;28;20508;-86
2021/10/14 05:50:39;;;;;;;113.65;51.80;;;;;;;10.92;100.00;101918.25;5050804;28;20074;-85
2021/10/14 05:53:06;;;;;;;;;;;;;;;10.94;100.00;101921.66;5059341;28;20045;-84
2021/10/14 05:55:33;;;;;;;117.05;51.25;;;;;;;10.87;100.00;101920.50;5045511;28;19986;-86
2021/10/14 05:58:01;;;;;;;108.90;50.50;;;;;;;10.84;100.00;101927.00;5032346;28;20497;-87
2021/10/14 06:00:26;;;;;;;109.07;49.60;;;;;;;10.89;100.00;101912.31;5053724;28;20071;-86
2021/10/14 06:02:51;;;;;;;123.60;53.40;;;;;;;10.90;100.00;101914.00;5037797;28;20100;-83
2021/10/14 06:05:17;;;;;;;109.25;51.58;;;;;;;10.90;100.00;101914.84;5032225;28;20153;-85
2021/10/14 06:07:42;;;;;;;124.40;54.42;;;;;;;10.92;100.00;101917.41;5027820;28;20481;-85
2021/10/14 06:10:08;;;;;;;123.53;55.83;;;;;;;10.94;100.00;101916.28;5047652;28;20041;-86
2021/10/14 06:12:34;;;;;;;121.93;54.20;;;;;;;10.94;100.00;101910.91;5052301;28;20497;-86
2021/10/14 06:15:05;;;;;;;128.48;55.72;;;;;;;10.95;100.00;101906.38;5039468;28;20037;-87
2021/10/14 06:17:31;;;;;;;125.93;55.53;;;;;;;10.95;100.00;101911.75;5045429;28;20489;-84
2021/10/14 06:19:57;;;;;;;121.70;54.95;;;;;;;10.95;100.00;101907.22;5042320;28;20046;-87
2021/10/14 06:22:23;;;;;;;123.53;57.78;;;;;;;10.96;100.00;101914.31;5029166;28;20110;-86
2021/10/14 06:24:48;;;;;;;128.23;55.15;;;;;;;10.96;100.00;101908.06;5041182;28;20059;-88
2021/10/14 06:27:14;;;;;;;124.63;55.17;;;;;;;10.96;100.00;101913.44;5041770;28;20506;-87
2021/10/14 06:29:40;;;;;;;127.80;57.97;;;;;;;10.97;100.00;101915.16;5042181;28;20436;-82
2021/10/14 06:32:05;;;;;;;130.73;57.13;;;;;;;10.96;100.00;101910.75;5035278;28;20029;-88
2021/10/14 06:34:31;;;;;;;122.30;55.72;;;;;;;10.95;100.00;101911.75;5044724;28;20405;-87
2021/10/14 06:36:56;;;;;;;127.13;61.00;;;;;;;10.95;100.00;101911.75;5061166;28;20044;-82
2021/10/14 06:39:21;;;;;;;133.50;60.88;;;;;;;10.96;100.00;101908.06;5066542;28;20097;-88
2021/10/14 06:41:49;;;;;;;130.80;61.75;;;;;;;10.94;100.00;101910.91;5052056;28;20047;-86
2021/10/14 06:44:17;;;;;;;127.35;57.53;;;;;;;10.93;100.00;101908.34;5035368;28;20045;-87
2021/10/14 06:46:47;;;;;;;113.03;54.30;;;;;;;10.94;100.00;101910.06;5041006;28;20045;-84
2021/10/14 06:49:13;;;;;;;116.82;57.17;;;;;;;10.93;100.00;101903.81;5042500;28;20052;-87
2021/10/14 06:51:38;;;;;;;115.07;55.80;;;;;;;10.92;100.00;101902.13;5046918;28;20044;-88
2021/10/14 06:54:12;;;;;;;120.80;58.75;;;;;;;10.94;100.00;101910.91;5041605;28;20045;-86
2021/10/14 06:56:39;;;;;;;110.88;55.20;;;;;;;10.96;100.00;101913.44;5038476;28;20072;-83
2021/10/14 06:59:05;;;;;;;115.10;55.67;;;;;;;10.95;100.00;101907.22;5056162;28;20032;-91
2021/10/14 07:01:31;;;;;;;106.82;52.72;;;;;;;10.95;100.00;101909.06;5065483;28;20999;-84
2021/10/14 07:03:56;;;;;;;105.13;51.92;;;;;;;10.95;100.00;101907.22;5064190;28;20032;-86
2021/10/14 07:06:22;;;;;;;102.65;55.17;;;;;;;10.95;100.00;101912.59;5062998;28;20068;-89
2021/10/14 07:08:47;;;;;;;106.07;54.13;;;;;;;10.97;100.00;101910.63;5062163;28;20044;-91
2021/10/14 07:11:15;;;;;;;107.35;55.40;;;;;;;10.95;100.00;101909.91;5066803;28;20054;-85
2021/10/14 07:13:44;;;;;;;107.85;55.78;;;;;;;10.96;100.00;101903.56;5078983;28;20040;-90
2021/10/14 07:16:12;;;;;;;110.28;55.40;;;;;;;10.96;100.00;101903.56;5058110;28;20045;-86
2021/10/14 07:18:38;;;;;;;108.00;54.33;;;;;;;10.97;100.00;101901.72;5068000;28;20041;-91
2021/10/14 07:21:03;;;;;;;112.43;59.15;;;;;;;10.96;100.00;101908.94;5056124;28;20541;-89
2021/10/14 07:23:29;;;;;;;106.80;54.97;;;;;;;10.98;100.00;101898.88;5064765;28;20056;-85
2021/10/14 07:25:55;;;;;;;113.78;57.47;;;;;;;10.98;100.00;101906.94;5043729;28;20033;-87
2021/10/14 07:28:21;;;;;;;112.90;57.75;;;;;;;10.99;100.00;101907.78;5040224;28;20966;-84
2021/10/14 07:30:47;;;;;;;121.88;59.90;;;;;;;11.00;100.00;101904.13;5047078;28;20121;-85
2021/10/14 07:33:15;;;;;;;126.88;60.17;;;;;;;11.01;100.00;101901.28;5062292;28;20119;-83
2021/10/14 07:35:41;;;;;;;115.65;59.28;;;;;;;11.03;100.00;101902.00;5061292;28;20052;-84
2021/10/14 07:38:10;;;;;;;124.97;59.85;;;;;;;11.03;100.00;101895.78;5064600;28;20040;-85
2021/10/14 07:40:38;;;;;;;127.15;61.70;;;;;;;11.06;100.00;101898.19;5061056;28;20123;-84
2021/10/14 07:43:12;;;;;;;113.88;56.45;;;;;;;11.06;100.00;101904.41;5063204;28;20029;-86
2021/10/14 07:45:42;;;;;;;123.60;60.25;;;;;;;11.06;100.00;101904.41;5078494;28;20134;-89
2021/10/14 07:48:09;;;;;;;116.80;56.90;;;;;;;11.09;100.00;101905.13;5066387;28;20090;-87
2021/10/14 07:50:36;;;;;;;119.80;59.17;;;;;;;11.10;100.00;101898.75;5064740;28;20037;-88
2021/10/14 07:53:12;;;;;;;120.13;58.90;;;;;;;11.12;100.00;101899.47;5042569;28;20512;-84
2021/10/14 07:55:41;;;;;;;117.35;60.17;;;;;;;11.14;100.00;101900.19;5052229;28;20033;-85
2021/10/14 07:58:08;;;;;;;120.68;60.42;;;;;;;11.17;100.00;101913.34;5064169;28;20039;-84
2021/10/14 08:00:34;;;;;;;124.10;61.58;;;;;;;11.19;100.00;101908.66;5058356;28;20340;-87
2021/10/14 08:03:02;;;;;;;121.20;58.90;;;;;;;11.20;100.00;101905.00;5066035;28;20028;-84
2021/10/14 08:05:27;;;;;;;117.18;60.28;;;;;;;11.25;100.00;101910.81;5071296;28;20040;-83
2021/10/14 08:07:52;;;;;;;113.32;56.67;;;;;;;11.26;100.00;101915.16;5064693;28;20033;-85
2021/10/14 08:10:18;;;;;;;120.07;58.25;;;;;;;11.28;100.00;101913.19;5060428;28;20087;-87
2021/10/14 08:12:43;;;;;;;110.63;57.55;;;;;;;11.29;100.00;101913.03;5073887;28;20052;-86
2021/10/14 08:15:11;;;;;;;115.65;58.17;;;;;;;11.29;100.00;101914.88;5053064;28;20037;-85
2021/10/14 08:17:39;;;;;;;104.15;54.20;;;;;;;11.28;100.00;101915.88;5065977;28;20044;-86
2021/10/14 08:20:07;;;;;;;105.10;53.58;;;;;;;11.28;100.00;101924.78;5065486;28;20037;-91
2021/10/14 08:22:36;;;;;;;108.50;53.33;;;;;;;11.27;100.00;101911.47;5067773;28;20561;-87
2021/10/14 08:25:14;;;;;;;;;;;;;;;11.28;100.00;101921.25;5065966;28;20048;-87
2021/10/14 08:27:42;;;;;;;105.30;51.85;;;;;;;11.21;100.00;101920.13;5068522;28;19916;-83
2021/10/14 08:30:11;;;;;;;110.13;56.92;;;;;;;11.22;100.00;101927.16;5065314;28;20397;-84
2021/10/14 08:32:36;;;;;;;;;;;;;;;11.24;100.00;101915.31;5061655;28;20362;-84
2021/10/14 08:35:02;;;;;;;104.25;52.72;;;;;;;11.20;100.00;101921.13;5063550;28;19924;-87
2021/10/14 08:37:29;;;;;;;100.50;52.00;;;;;;;11.20;100.00;101921.97;5050490;28;20453;-83
2021/10/14 08:39:55;;;;;;;110.15;54.35;;;;;;;11.25;100.00;101918.84;5062816;28;20060;-88
2021/10/14 08:42:21;;;;;;;106.28;55.13;;;;;;;11.26;100.00;101916.00;5081337;28;20072;-91
2021/10/14 08:44:49;;;;;;;105.13;52.05;;;;;;;11.30;100.00;101913.88;5067724;28;20048;-88
2021/10/14 08:47:19;;;;;;;106.60;53.22;;;;;;;11.35;100.00;101913.47;5081223;28;20389;-86
2021/10/14 08:49:47;;;;;;;101.75;52.90;;;;;;;11.34;100.00;101911.78;5069473;28;20028;-87
2021/10/14 08:52:14;;;;;;;109.60;54.30;;;;;;;11.36;100.00;101909.78;5084202;28;20044;-84
2021/10/14 08:54:40;;;;;;;101.45;53.47;;;;;;;11.37;100.00;101912.34;5065342;28;20051;-89
2021/10/14 08:57:07;;;;;;;108.28;51.90;;;;;;;11.39;100.00;101910.34;5068115;28;20052;-86
2021/10/14 08:59:32;;;;;;;90.95;50.42;;;;;;;11.41;100.00;101913.75;5065261;28;20040;-82
2021/10/14 09:02:08;;;;;;;98.47;49.40;;;;;;;11.46;100.00;101910.63;5064800;28;20038;-86
2021/10/14 09:04:38;;;;;;;95.32;50.15;;;;;;;11.47;100.00;101906.94;5064821;28;20040;-83
2021/10/14 09:07:15;;;;;;;98.53;49.83;;;;;;;11.48;100.00;101914.88;5045287;28;20037;-89
2021/10/14 09:09:46;;;;;;;95.65;48.72;;;;;;;11.49;100.00;101905.81;5060367;28;20040;-85
2021/10/14 09:12:13;;;;;;;89.38;47.30;;;;;;;11.50;100.00;101902.13;5064900;28;20455;-89
2021/10/14 09:15:06;;;;;;;93.88;46.20;;;;;;;11.52;100.00;101905.53;5062612;28;20064;-90
2021/10/14 09:17:37;;;;;;;86.10;46.17;;;;;;;11.52;100.00;101900.16;5046402;28;20045;-84
2021/10/14 09:20:23;;;;;;;82.00;43.58;;;;;;;11.53;100.00;101898.31;5068600;28;20041;-91
2021/10/14 09:23:16;;;;;;;89.75;44.75;;;;;;;11.56;100.00;101889.09;5058641;28;20496;-89
2021/10/14 09:25:46;;;;;;;86.10;43.65;;;;;;;11.59;100.00;101892.34;5044767;28;20044;-88
2021/10/14 09:28:25;;;;;;;83.85;42.53;;;;;;;11.61;100.00;101894.91;5063674;28;20040;-89
2021/10/14 09:31:05;;;;;;;87.20;45.88;;;;;;;11.63;100.00;101895.63;5063632;28;20535;-86
2021/10/14 09:33:42;;;;;;;82.57;44.70;;;;;;;11.65;100.00;101886.44;5048381;28;20037;-84
2021/10/14 09:36:15;;;;;;;80.15;42.08;;;;;;;11.66;100.00;101888.09;5059496;28;20037;-86
2021/10/14 09:38:42;;;;;;;83.50;44.08;;;;;;;11.69;100.00;101884.28;5050271;28;20336;-87
2021/10/14 09:41:13;;;;;;;73.10;40.83;;;;;;;11.70;100.00;101884.13;5069029;28;20033;-88
2021/10/14 09:43:42;;;;;;;83.70;44.33;;;;;;;11.72;100.00;101878.63;5065578;28;20036;-86
2021/10/14 09:46:08;;;;;;;81.70;43.22;;;;;;;11.73;100.00;101893.75;5065736;28;20024;-86
2021/10/14 09:48:41;;;;;;;86.40;44.67;;;;;;;11.77;100.00;101891.59;5066201;28;20102;-86
2021/10/14 09:51:09;;;;;;;85.40;45.25;;;;;;;11.76;100.00;101890.75;5072997;28;20049;-87
2021/10/14 09:53:35;;;;;;;78.40;41.78;;;;;;;11.77;100.00;101895.16;5080458;28;20448;-89
2021/10/14 09:56:01;;;;;;;78.75;42.42;;;;;;;11.80;100.00;101897.56;5062874;28;20048;-89
2021/10/14 09:58:26;;;;;;;82.93;44.20;;;;;;;11.81;100.00;101890.34;5065879;28;20045;-86
2021/10/14 10:00:52;;;;;;;86.03;44.53;;;;;;;11.82;100.00;101898.25;5048219;28;20120;-87
2021/10/14 10:03:21;;;;;;;81.10;43.03;;;;;;;11.83;100.00;101894.59;5061316;28;20180;-86
2021/10/14 10:05:49;;;;;;;87.53;44.40;;;;;;;11.85;100.00;101887.22;5063730;28;20066;-90
2021/10/14 10:08:37;;;;;;;80.90;44.75;;;;;;;11.88;100.00;101892.34;5066191;28;20045;-87
2021/10/14 10:11:10;;;;;;;80.72;41.70;;;;;;;11.89;100.00;101891.34;5053779;28;20131;-87
2021/10/14 10:13:39;;;;;;;76.57;42.20;;;;;;;11.89;100.00;101885.97;5041624;28;20049;-86
2021/10/14 10:16:31;;;;;;;82.97;43.45;;;;;;;11.93;100.00;101886.50;5041715;28;20052;-83
2021/10/14 10:19:00;;;;;;;80.82;44.05;;;;;;;11.93;100.00;101881.97;5037527;28;20041;-89
2021/10/14 10:21:30;;;;;;;81.60;43.42;;;;;;;11.95;100.00;101885.38;5041240;28;20479;-86
2021/10/14 10:23:59;;;;;;;88.65;45.20;;;;;;;12.00;100.00;101884.06;5043115;28;20068;-84
2021/10/14 10:26:36;;;;;;;83.75;45.65;;;;;;;12.01;100.00;101891.16;5046580;28;20041;-85
2021/10/14 10:29:16;;;;;;;73.20;42.35;;;;;;;12.02;100.00;101884.78;5055840;28;20036;-84
2021/10/14 10:31:48;;;;;;;80.35;45.47;;;;;;;12.07;100.00;101887.88;5065530;28;20139;-84
2021/10/14 10:34:43;;;;;;;81.93;43.83;;;;;;;12.08;100.00;101879.66;5076555;28;20640;-87
2021/10/14 10:37:10;;;;;;;80.35;42.92;;;;;;;12.10;100.00;101871.44;5030036;28;20900;-88
2021/10/14 10:39:43;;;;;;;80.43;45.25;;;;;;;12.14;100.00;101875.53;5041442;28;20037;-84
2021/10/14 10:42:28;;;;;;;80.68;44.75;;;;;;;12.18;100.00;101880.47;5045165;28;20086;-88
2021/10/14 10:44:54;;;;;;;81.78;46.58;;;;;;;12.18;100.00;101875.09;5039316;28;20048;-86
2021/10/14 10:47:42;;;;;;;81.25;45.45;;;;;;;12.23;100.00;101874.66;5044716;28;20141;-87
2021/10/14 10:50:13;;;;;;;82.47;47.42;;;;;;;12.26;100.00;101876.22;5042536;28;20405;-87
2021/10/14 10:52:43;;;;;;;78.78;46.17;;;;;;;12.26;100.00;101873.50;5033463;28;20135;-88
2021/10/14 10:55:20;;;;;;;79.88;46.28;;;;;;;12.28;100.00;101863.41;5023244;28;20116;-88
2021/10/14 10:57:48;;;;;;;72.72;43.10;;;;;;;12.29;100.00;101865.97;5033814;28;20044;-85
2021/10/14 11:00:15;;;;;;;72.88;42.90;;;;;;;12.32;100.00;101870.22;5048664;28;20068;-89
2021/10/14 11:02:44;;;;;;;75.63;44.30;;;;;;;12.36;100.00;101868.91;5046535;28;20033;-85
2021/10/14 11:05:11;;;;;;;69.03;42.60;;;;;;;12.37;100.00;101859.81;5042643;28;20033;-87